createdAt,value
2022-08-28T00:00:12.651Z,16.85
2022-08-28T00:02:40.816Z,16.85
2022-08-28T00:05:11.941Z,16.83
2022-08-28T00:07:42.334Z,16.83
2022-08-28T00:10:13.969Z,16.82
2022-08-28T00:12:41.897Z,16.83
2022-08-28T00:15:12.996Z,16.80
2022-08-28T00:17:41.059Z,16.79
2022-08-28T00:20:11.935Z,16.80
2022-08-28T00:22:40.094Z,16.81
2022-08-28T00:25:08.475Z,16.83
2022-08-28T00:28:05.405Z,16.82
2022-08-28T00:30:38.202Z,16.83
2022-08-28T00:33:07.949Z,16.86
2022-08-28T00:35:41.176Z,16.84
2022-08-28T00:38:09.348Z,16.85
2022-08-28T00:40:38.380Z,16.86
2022-08-28T00:43:07.333Z,16.87
2022-08-28T00:45:39.535Z,16.89
2022-08-28T00:48:08.373Z,16.92
2022-08-28T00:50:50.858Z,16.94
2022-08-28T00:53:20.902Z,16.94
2022-08-28T00:55:51.705Z,16.95
2022-08-28T00:58:20.285Z,16.96
2022-08-28T01:00:48.295Z,16.96
2022-08-28T01:03:16.220Z,16.96
2022-08-28T01:05:48.113Z,16.97
2022-08-28T01:08:16.159Z,16.97
2022-08-28T01:10:49.745Z,16.99
2022-08-28T01:13:18.275Z,16.98
2022-08-28T01:15:46.758Z,17.00
2022-08-28T01:18:16.558Z,17.01
2022-08-28T01:20:48.099Z,17.01
2022-08-28T01:23:21.644Z,17.00
2022-08-28T01:25:52.613Z,16.99
2022-08-28T01:28:20.627Z,16.99
2022-08-28T01:30:49.535Z,17.00
2022-08-28T01:33:19.694Z,16.99
2022-08-28T01:35:56.047Z,16.97
2022-08-28T01:38:27.016Z,16.97
2022-08-28T01:40:57.554Z,16.96
2022-08-28T01:43:26.537Z,16.98
2022-08-28T01:45:56.454Z,16.96
2022-08-28T01:48:26.311Z,16.95
2022-08-28T01:50:54.781Z,16.94
2022-08-28T01:53:25.047Z,16.92
2022-08-28T01:55:53.978Z,16.89
2022-08-28T01:58:23.716Z,16.86
2022-08-28T02:00:52.524Z,16.84
2022-08-28T02:03:20.860Z,16.83
2022-08-28T02:05:48.815Z,16.80
2022-08-28T02:08:16.729Z,16.76
2022-08-28T02:10:44.763Z,16.71
2022-08-28T02:13:13.315Z,16.71
2022-08-28T02:15:42.906Z,16.69
2022-08-28T02:18:11.172Z,16.66
2022-08-28T02:20:39.125Z,16.64
2022-08-28T02:23:07.268Z,16.63
2022-08-28T02:25:35.142Z,16.59
2022-08-28T02:28:03.400Z,16.55
2022-08-28T02:30:31.410Z,16.54
2022-08-28T02:33:00.752Z,16.53
2022-08-28T02:35:28.912Z,16.54
2022-08-28T02:37:57.137Z,16.48
2022-08-28T02:40:29.801Z,16.46
2022-08-28T02:42:57.792Z,16.45
2022-08-28T02:45:25.736Z,16.41
2022-08-28T02:47:54.619Z,16.40
2022-08-28T02:50:24.412Z,16.39
2022-08-28T02:52:52.465Z,16.38
2022-08-28T02:55:20.988Z,16.36
2022-08-28T02:57:49.284Z,16.36
2022-08-28T03:00:19.863Z,16.38
2022-08-28T03:02:48.219Z,16.35
2022-08-28T03:05:17.705Z,16.36
2022-08-28T03:07:47.058Z,16.38
2022-08-28T03:10:15.360Z,16.38
2022-08-28T03:12:43.193Z,16.40
2022-08-28T03:15:11.518Z,16.39
2022-08-28T03:17:39.559Z,16.41
2022-08-28T03:20:10.023Z,16.40
2022-08-28T03:22:56.009Z,16.39
2022-08-28T03:25:25.894Z,16.39
2022-08-28T03:27:53.959Z,16.40
2022-08-28T03:30:22.763Z,16.39
2022-08-28T03:32:50.709Z,16.39
2022-08-28T03:35:18.828Z,16.37
2022-08-28T03:37:46.761Z,16.35
2022-08-28T03:40:15.095Z,16.34
2022-08-28T03:42:51.300Z,16.34
2022-08-28T03:45:22.064Z,16.32
2022-08-28T03:47:50.937Z,16.34
2022-08-28T03:50:19.983Z,16.34
2022-08-28T03:52:47.927Z,16.34
2022-08-28T03:55:16.842Z,16.34
2022-08-28T03:57:46.188Z,16.33
2022-08-28T04:00:14.684Z,16.29
2022-08-28T04:02:42.760Z,16.29
2022-08-28T04:05:11.213Z,16.30
2022-08-28T04:07:39.594Z,16.30
2022-08-28T04:10:08.106Z,16.27
2022-08-28T04:12:37.017Z,16.25
2022-08-28T04:15:07.736Z,16.23
2022-08-28T04:17:35.766Z,16.23
2022-08-28T04:20:04.113Z,16.20
2022-08-28T04:22:32.126Z,16.19
2022-08-28T04:25:00.464Z,16.17
2022-08-28T04:27:28.441Z,16.19
2022-08-28T04:29:56.339Z,16.18
2022-08-28T04:32:25.877Z,16.18
2022-08-28T04:34:54.207Z,16.24
2022-08-28T04:37:22.808Z,16.24
2022-08-28T04:39:56.148Z,16.16
2022-08-28T04:42:24.073Z,16.19
2022-08-28T04:44:51.975Z,16.15
2022-08-28T04:47:20.085Z,16.16
2022-08-28T04:49:49.954Z,16.15
2022-08-28T04:52:17.895Z,16.16
2022-08-28T04:54:45.866Z,16.15
2022-08-28T04:57:13.820Z,16.16
2022-08-28T04:59:44.537Z,16.28
2022-08-28T05:02:12.515Z,16.24
2022-08-28T05:04:40.992Z,16.33
2022-08-28T05:07:10.337Z,16.31
2022-08-28T05:09:38.279Z,16.34
2022-08-28T05:12:07.136Z,16.34
2022-08-28T05:14:34.989Z,16.25
2022-08-28T05:17:02.904Z,16.24
2022-08-28T05:19:31.427Z,16.23
2022-08-28T05:22:00.524Z,16.28
2022-08-28T05:24:29.845Z,16.23
2022-08-28T05:26:58.008Z,16.24
2022-08-28T05:29:26.049Z,16.23
2022-08-28T05:31:53.982Z,16.21
2022-08-28T05:34:22.108Z,16.21
2022-08-28T05:36:50.054Z,16.21
2022-08-28T05:39:18.168Z,16.23
2022-08-28T05:41:47.850Z,16.25
2022-08-28T05:44:17.083Z,16.26
2022-08-28T05:46:48.236Z,16.25
2022-08-28T05:49:17.905Z,16.27
2022-08-28T05:51:45.869Z,16.30
2022-08-28T05:54:15.038Z,16.32
2022-08-28T05:56:44.299Z,16.33
2022-08-28T05:59:14.528Z,16.36
2022-08-28T06:01:43.791Z,16.38
2022-08-28T06:04:13.482Z,16.39
2022-08-28T06:06:42.493Z,16.55
2022-08-28T06:09:12.149Z,16.57
2022-08-28T06:11:42.834Z,16.59
2022-08-28T06:14:18.108Z,16.64
2022-08-28T06:16:47.451Z,16.65
2022-08-28T06:19:16.978Z,16.63
2022-08-28T06:21:46.908Z,16.65
2022-08-28T06:24:14.872Z,16.68
2022-08-28T06:26:42.871Z,16.70
2022-08-28T06:29:12.472Z,16.70
2022-08-28T06:31:41.847Z,16.71
2022-08-28T06:34:10.222Z,16.74
2022-08-28T06:36:39.176Z,16.75
2022-08-28T06:39:09.795Z,16.75
2022-08-28T06:41:41.054Z,16.67
2022-08-28T06:44:09.439Z,16.69
2022-08-28T06:46:37.508Z,16.72
2022-08-28T06:49:08.494Z,16.73
2022-08-28T06:51:36.864Z,16.75
2022-08-28T06:54:05.234Z,16.74
2022-08-28T06:56:33.303Z,16.76
2022-08-28T06:59:01.292Z,16.78
2022-08-28T07:01:30.442Z,16.78
2022-08-28T07:04:00.081Z,16.80
2022-08-28T07:06:32.023Z,16.79
2022-08-28T07:08:59.996Z,16.82
2022-08-28T07:11:29.035Z,16.84
2022-08-28T07:13:57.340Z,16.88
2022-08-28T07:16:27.266Z,16.91
2022-08-28T07:18:55.318Z,16.95
2022-08-28T07:21:23.439Z,16.97
2022-08-28T07:23:52.729Z,16.98
2022-08-28T07:26:22.649Z,17.02
2022-08-28T07:28:50.755Z,17.03
2022-08-28T07:31:20.255Z,17.05
2022-08-28T07:33:50.833Z,17.05
2022-08-28T07:36:29.726Z,17.06
2022-08-28T07:39:00.143Z,17.10
2022-08-28T07:41:29.107Z,17.16
2022-08-28T07:44:14.780Z,17.18
2022-08-28T07:46:43.003Z,17.23
2022-08-28T07:49:11.169Z,17.31
2022-08-28T07:51:39.075Z,17.38
2022-08-28T07:54:08.628Z,17.43
2022-08-28T07:56:45.730Z,17.53
2022-08-28T07:59:16.932Z,17.55
2022-08-28T08:01:48.075Z,17.61
2022-08-28T08:04:17.436Z,17.58
2022-08-28T08:06:45.705Z,17.62
2022-08-28T08:09:16.912Z,17.61
2022-08-28T08:11:45.119Z,17.63
2022-08-28T08:14:13.594Z,17.56
2022-08-28T08:16:43.483Z,17.59
2022-08-28T08:19:14.104Z,17.56
2022-08-28T08:21:42.942Z,17.54
2022-08-28T08:24:12.197Z,17.59
2022-08-28T08:26:50.857Z,17.65
2022-08-28T08:29:27.725Z,17.66
2022-08-28T08:31:58.078Z,17.74
2022-08-28T08:34:26.666Z,17.77
2022-08-28T08:36:54.535Z,17.75
2022-08-28T08:39:22.452Z,17.78
2022-08-28T08:41:54.908Z,17.83
2022-08-28T08:44:28.475Z,17.87
2022-08-28T08:47:10.658Z,17.95
2022-08-28T08:49:43.849Z,17.97
2022-08-28T08:52:26.818Z,18.01
2022-08-28T08:55:03.146Z,18.01
2022-08-28T08:57:33.168Z,18.02
2022-08-28T09:00:01.295Z,18.03
2022-08-28T09:02:33.470Z,18.05
2022-08-28T09:05:04.462Z,17.99
2022-08-28T09:07:39.087Z,18.06
2022-08-28T09:10:07.842Z,18.08
2022-08-28T09:12:46.640Z,18.10
2022-08-28T09:15:18.461Z,18.13
2022-08-28T09:17:48.173Z,18.19
2022-08-28T09:20:19.046Z,18.19
2022-08-28T09:22:50.574Z,18.25
2022-08-28T09:25:33.341Z,18.32
2022-08-28T09:28:07.227Z,18.41
2022-08-28T09:30:36.799Z,18.49
2022-08-28T09:33:05.361Z,18.47
2022-08-28T09:35:34.563Z,18.55
2022-08-28T09:38:19.088Z,18.57
2022-08-28T09:41:04.990Z,18.65
2022-08-28T09:43:35.783Z,18.70
2022-08-28T09:46:06.705Z,18.76
2022-08-28T09:48:36.396Z,18.67
2022-08-28T09:51:05.251Z,18.71
2022-08-28T09:53:33.924Z,18.74
2022-08-28T09:56:08.908Z,18.73
2022-08-28T09:58:39.348Z,18.79
2022-08-28T10:01:12.114Z,18.81
2022-08-28T10:03:46.894Z,18.84
2022-08-28T10:06:16.938Z,18.92
2022-08-28T10:09:00.725Z,18.93
2022-08-28T10:11:33.698Z,18.98
2022-08-28T10:14:08.058Z,19.05
2022-08-28T10:16:42.352Z,18.97
2022-08-28T10:19:17.145Z,18.96
2022-08-28T10:21:49.159Z,18.99
2022-08-28T10:24:27.281Z,19.03
2022-08-28T10:27:00.435Z,19.03
2022-08-28T10:29:36.640Z,19.05
2022-08-28T10:32:12.979Z,19.04
2022-08-28T10:34:49.317Z,19.05
2022-08-28T10:37:24.511Z,19.10
2022-08-28T10:39:55.366Z,19.00
2022-08-28T10:42:27.870Z,19.00
2022-08-28T10:45:08.724Z,18.99
2022-08-28T10:47:39.089Z,18.94
2022-08-28T10:50:10.170Z,18.92
2022-08-28T10:52:40.239Z,18.94
2022-08-28T10:55:12.674Z,18.92
2022-08-28T10:57:42.871Z,18.85
2022-08-28T11:00:14.455Z,18.77
2022-08-28T11:02:43.489Z,18.80
2022-08-28T11:05:11.663Z,18.79
2022-08-28T11:07:41.023Z,18.88
2022-08-28T11:10:29.814Z,18.86
2022-08-28T11:12:57.750Z,18.88
2022-08-28T11:15:45.135Z,18.96
2022-08-28T11:18:35.264Z,18.93
2022-08-28T11:21:09.058Z,19.00
2022-08-28T11:23:43.101Z,18.98
2022-08-28T11:26:13.751Z,19.02
2022-08-28T11:28:44.568Z,19.06
2022-08-28T11:31:44.999Z,19.08
2022-08-28T11:34:27.693Z,19.12
2022-08-28T11:37:01.066Z,19.15
2022-08-28T11:39:29.099Z,19.18
2022-08-28T11:42:32.283Z,19.24
2022-08-28T11:45:01.333Z,19.22
2022-08-28T11:47:37.603Z,19.20
2022-08-28T11:50:13.865Z,19.20
2022-08-28T11:52:51.011Z,19.23
2022-08-28T11:55:24.738Z,19.20
2022-08-28T12:00:33.059Z,19.26
2022-08-28T12:03:12.090Z,19.31
2022-08-28T12:05:45.615Z,19.32
2022-08-28T12:08:14.325Z,19.36
2022-08-28T12:10:58.965Z,19.40
2022-08-28T12:13:44.538Z,19.36
2022-08-28T12:16:12.816Z,19.33
2022-08-28T12:19:01.517Z,19.30
2022-08-28T12:21:32.631Z,19.35
2022-08-28T12:24:09.033Z,19.31
2022-08-28T12:26:40.021Z,19.30
2022-08-28T12:29:19.063Z,19.33
2022-08-28T12:32:14.592Z,19.36
2022-08-28T12:34:44.618Z,19.33
2022-08-28T12:37:26.581Z,19.29
2022-08-28T12:39:56.241Z,19.34
2022-08-28T12:42:27.330Z,19.33
2022-08-28T12:45:00.522Z,19.31
2022-08-28T12:47:28.491Z,19.30
2022-08-28T12:49:56.468Z,19.26
2022-08-28T12:52:27.029Z,19.21
2022-08-28T12:54:56.569Z,19.21
2022-08-28T12:57:25.969Z,19.19
2022-08-28T12:59:54.595Z,19.17
2022-08-28T13:02:26.123Z,19.18
2022-08-28T13:04:56.172Z,19.13
2022-08-28T13:07:28.475Z,19.12
2022-08-28T13:09:58.776Z,19.09
2022-08-28T13:12:37.753Z,19.01
2022-08-28T13:15:36.382Z,19.02
2022-08-28T13:18:04.386Z,19.01
2022-08-28T13:20:33.141Z,19.03
2022-08-28T13:23:02.795Z,19.04
2022-08-28T13:25:32.561Z,19.05
2022-08-28T13:28:02.993Z,19.02
2022-08-28T13:30:33.682Z,19.20
2022-08-28T13:33:02.530Z,19.19
2022-08-28T13:35:33.341Z,19.12
2022-08-28T13:38:03.537Z,19.13
2022-08-28T13:43:22.713Z,19.14
2022-08-28T13:45:51.305Z,19.12
2022-08-28T13:48:20.040Z,19.08
2022-08-28T13:50:48.695Z,19.12
2022-08-28T13:53:19.225Z,19.07
2022-08-28T13:55:47.457Z,19.12
2022-08-28T13:58:16.053Z,19.12
2022-08-28T14:00:45.808Z,19.12
2022-08-28T14:03:31.193Z,19.13
2022-08-28T14:05:59.261Z,19.10
2022-08-28T14:08:28.539Z,19.09
2022-08-28T14:10:56.578Z,19.12
2022-08-28T14:13:27.627Z,19.09
2022-08-28T14:15:55.953Z,19.07
2022-08-28T14:18:24.051Z,19.07
2022-08-28T14:20:51.909Z,19.09
2022-08-28T14:23:20.218Z,19.10
2022-08-28T14:25:49.447Z,19.13
2022-08-28T14:28:17.506Z,19.19
2022-08-28T14:30:45.692Z,19.23
2022-08-28T14:33:15.423Z,19.32
2022-08-28T14:35:43.671Z,19.36
2022-08-28T14:38:11.712Z,19.35
2022-08-28T14:40:40.631Z,19.38
2022-08-28T14:43:10.931Z,19.36
2022-08-28T14:45:42.798Z,19.39
2022-08-28T14:48:10.774Z,19.42
2022-08-28T14:50:42.581Z,19.30
2022-08-28T14:53:11.084Z,19.39
2022-08-28T14:55:42.886Z,19.45
2022-08-28T14:58:12.684Z,19.37
2022-08-28T15:00:42.333Z,19.32
2022-08-28T15:03:10.856Z,19.39
2022-08-28T15:05:39.416Z,19.37
2022-08-28T15:08:07.906Z,19.38
2022-08-28T15:10:35.868Z,19.35
2022-08-28T15:13:04.019Z,19.32
2022-08-28T15:15:39.497Z,19.32
2022-08-28T15:18:07.700Z,19.43
2022-08-28T15:20:38.476Z,19.46
2022-08-28T15:23:06.492Z,19.41
2022-08-28T15:25:34.770Z,19.51
2022-08-28T15:28:02.737Z,19.58
2022-08-28T15:30:30.695Z,19.62
2022-08-28T15:33:00.093Z,19.65
2022-08-28T15:35:28.235Z,19.63
2022-08-28T15:37:56.144Z,19.59
2022-08-28T15:40:41.329Z,19.67
2022-08-28T15:43:09.378Z,19.46
2022-08-28T15:45:37.649Z,19.36
2022-08-28T15:48:07.266Z,19.31
2022-08-28T15:50:35.340Z,19.32
2022-08-28T15:53:03.340Z,19.22
2022-08-28T15:55:34.214Z,19.15
2022-08-28T15:58:04.638Z,19.07
2022-08-28T16:00:36.942Z,19.03
2022-08-28T16:03:06.492Z,18.97
2022-08-28T16:05:35.706Z,18.96
2022-08-28T16:08:09.147Z,18.97
2022-08-28T16:10:37.520Z,18.97
2022-08-28T16:13:06.923Z,18.89
2022-08-28T16:15:35.368Z,18.86
2022-08-28T16:18:03.408Z,18.89
2022-08-28T16:20:32.710Z,18.93
2022-08-28T16:23:00.614Z,18.90
2022-08-28T16:25:28.734Z,18.85
2022-08-28T16:27:56.644Z,18.91
2022-08-28T16:30:24.749Z,18.86
2022-08-28T16:32:54.288Z,18.85
2022-08-28T16:35:22.953Z,18.86
2022-08-28T16:37:52.381Z,18.85
2022-08-28T16:40:20.532Z,18.86
2022-08-28T16:42:52.025Z,18.88
2022-08-28T16:45:20.316Z,18.96
2022-08-28T16:47:49.165Z,18.93
2022-08-28T16:50:17.361Z,18.85
2022-08-28T16:52:45.321Z,18.85
2022-08-28T16:55:14.981Z,18.83
2022-08-28T16:57:43.007Z,18.79
2022-08-28T17:00:13.531Z,18.81
2022-08-28T17:02:42.198Z,18.84
2022-08-28T17:05:11.846Z,18.81
2022-08-28T17:07:40.646Z,18.80
2022-08-28T17:10:09.670Z,18.76
2022-08-28T17:12:39.297Z,18.77
2022-08-28T17:15:08.128Z,18.77
2022-08-28T17:17:36.407Z,18.76
2022-08-28T17:20:05.165Z,18.77
2022-08-28T17:22:32.580Z,18.75
2022-08-28T17:25:01.734Z,18.70
2022-08-28T17:27:30.021Z,18.64
2022-08-28T17:30:01.439Z,18.65
2022-08-28T17:32:29.417Z,18.63
2022-08-28T17:34:57.385Z,18.62
2022-08-28T17:37:25.509Z,18.58
2022-08-28T17:39:54.321Z,18.58
2022-08-28T17:42:22.840Z,18.57
2022-08-28T17:44:51.165Z,18.56
2022-08-28T17:47:27.488Z,18.56
2022-08-28T17:49:59.265Z,18.57
2022-08-28T17:52:27.686Z,18.57
2022-08-28T17:54:55.788Z,18.48
2022-08-28T17:57:24.424Z,18.48
2022-08-28T17:59:52.445Z,18.49
2022-08-28T18:02:21.705Z,18.45
2022-08-28T18:04:49.707Z,18.44
2022-08-28T18:07:17.642Z,18.46
2022-08-28T18:09:45.537Z,18.42
2022-08-28T18:12:13.744Z,18.37
2022-08-28T18:14:41.720Z,18.38
2022-08-28T18:17:10.832Z,18.36
2022-08-28T18:19:40.714Z,18.34
2022-08-28T18:22:09.589Z,18.34
2022-08-28T18:24:37.612Z,18.28
2022-08-28T18:27:06.667Z,18.27
2022-08-28T18:29:34.637Z,18.25
2022-08-28T18:32:03.376Z,18.23
2022-08-28T18:34:31.721Z,18.17
2022-08-28T18:37:01.178Z,18.13
2022-08-28T18:39:29.422Z,18.14
2022-08-28T18:41:58.194Z,18.13
2022-08-28T18:44:26.345Z,18.11
2022-08-28T18:46:54.521Z,18.10
2022-08-28T18:49:23.070Z,18.04
2022-08-28T18:51:50.979Z,18.03
2022-08-28T18:54:21.173Z,18.01
2022-08-28T18:56:50.908Z,17.98
2022-08-28T18:59:19.344Z,17.98
2022-08-28T19:01:47.437Z,17.94
2022-08-28T19:04:15.489Z,17.95
2022-08-28T19:06:44.423Z,17.97
2022-08-28T19:09:19.339Z,17.93
2022-08-28T19:11:50.084Z,17.92
2022-08-28T19:14:18.111Z,17.91
2022-08-28T19:16:46.780Z,17.87
2022-08-28T19:19:15.458Z,17.83
2022-08-28T19:21:43.590Z,17.81
2022-08-28T19:24:11.640Z,17.80
2022-08-28T19:26:39.827Z,17.76
2022-08-28T19:29:09.595Z,17.75
2022-08-28T19:31:37.775Z,17.75
2022-08-28T19:34:07.179Z,17.72
2022-08-28T19:36:35.971Z,17.72
2022-08-28T19:39:03.926Z,17.72
2022-08-28T19:41:32.566Z,17.70
2022-08-28T19:44:01.166Z,17.72
2022-08-28T19:46:30.644Z,17.71
2022-08-28T19:48:58.627Z,17.69
2022-08-28T19:51:26.700Z,17.68
2022-08-28T19:53:58.452Z,17.63
2022-08-28T19:56:28.181Z,17.65
2022-08-28T19:58:57.503Z,17.62
2022-08-28T20:01:25.569Z,17.62
2022-08-28T20:03:55.059Z,17.63
2022-08-28T20:06:23.119Z,17.62
2022-08-28T20:08:50.989Z,17.60
2022-08-28T20:11:24.916Z,17.58
2022-08-28T20:13:53.252Z,17.56
2022-08-28T20:16:21.617Z,17.59
2022-08-28T20:18:50.553Z,17.58
2022-08-28T20:21:32.985Z,17.57
2022-08-28T20:24:06.650Z,17.56
2022-08-28T20:26:34.822Z,17.56
2022-08-28T20:29:03.436Z,17.54
2022-08-28T20:31:31.441Z,17.51
2022-08-28T20:33:59.645Z,17.48
2022-08-28T20:36:28.963Z,17.47
2022-08-28T20:38:57.129Z,17.48
2022-08-28T20:41:25.461Z,17.45
2022-08-28T20:43:53.388Z,17.40
2022-08-28T20:46:22.062Z,17.38
2022-08-28T20:48:50.102Z,17.36
2022-08-28T20:51:38.032Z,17.36
2022-08-28T20:54:07.409Z,17.36
2022-08-28T20:56:35.434Z,17.35
2022-08-28T20:59:03.309Z,17.33
2022-08-28T21:01:31.434Z,17.34
2022-08-28T21:03:59.571Z,17.30
2022-08-28T21:06:27.665Z,17.30
2022-08-28T21:08:56.492Z,17.31
2022-08-28T21:11:26.604Z,17.33
2022-08-28T21:13:54.790Z,17.32
2022-08-28T21:16:24.704Z,17.32
2022-08-28T21:19:14.878Z,17.29
2022-08-28T21:21:41.153Z,17.31
2022-08-28T21:24:10.717Z,17.29
2022-08-28T21:26:40.802Z,17.31
2022-08-28T21:29:11.369Z,17.29
2022-08-28T21:31:41.820Z,17.28
2022-08-28T21:34:10.504Z,17.31
2022-08-28T21:36:39.345Z,17.30
2022-08-28T21:39:07.301Z,17.29
2022-08-28T21:41:35.248Z,17.28
2022-08-28T21:44:05.033Z,17.28
2022-08-28T21:46:33.033Z,17.27
2022-08-28T21:49:01.166Z,17.28
2022-08-28T21:51:29.167Z,17.29
2022-08-28T21:53:57.910Z,17.29
2022-08-28T21:56:27.963Z,17.29
2022-08-28T21:58:56.964Z,17.28
2022-08-28T22:01:27.399Z,17.29
2022-08-28T22:03:55.938Z,17.29
2022-08-28T22:06:25.706Z,17.30
2022-08-28T22:08:54.116Z,17.30
2022-08-28T22:11:24.841Z,17.30
2022-08-28T22:13:53.305Z,17.31
2022-08-28T22:16:21.420Z,17.30
2022-08-28T22:18:50.833Z,17.30
2022-08-28T22:21:38.367Z,17.31
2022-08-28T22:24:06.472Z,17.32
2022-08-28T22:26:35.053Z,17.32
2022-08-28T22:29:03.182Z,17.34
2022-08-28T22:31:31.113Z,17.34
2022-08-28T22:34:00.624Z,17.34
2022-08-28T22:36:29.198Z,17.36
2022-08-28T22:38:58.460Z,17.38
2022-08-28T22:41:26.450Z,17.38
2022-08-28T22:43:54.392Z,17.39
2022-08-28T22:46:22.432Z,17.40
2022-08-28T22:48:51.232Z,17.40
2022-08-28T22:51:20.658Z,17.39
2022-08-28T22:53:49.192Z,17.39
2022-08-28T22:56:18.135Z,17.39
2022-08-28T22:58:46.574Z,17.41
2022-08-28T23:01:15.927Z,17.41
2022-08-28T23:03:43.879Z,17.37
2022-08-28T23:06:12.182Z,17.37
2022-08-28T23:08:41.736Z,17.36
2022-08-28T23:11:09.940Z,17.37
2022-08-28T23:13:38.075Z,17.36
2022-08-28T23:16:06.837Z,17.37
2022-08-28T23:18:51.925Z,17.38
2022-08-28T23:21:26.398Z,17.38
2022-08-28T23:23:56.200Z,17.36
2022-08-28T23:26:24.671Z,17.35
2022-08-28T23:28:52.657Z,17.33
2022-08-28T23:31:20.831Z,17.34
2022-08-28T23:33:49.819Z,17.35
2022-08-28T23:36:18.085Z,17.35
2022-08-28T23:38:46.412Z,17.35
2022-08-28T23:41:15.653Z,17.36
2022-08-28T23:43:43.611Z,17.35
2022-08-28T23:46:13.737Z,17.35
2022-08-28T23:48:41.786Z,17.35
2022-08-28T23:51:09.934Z,17.31
2022-08-28T23:53:39.880Z,17.36
2022-08-28T23:56:08.648Z,17.34
2022-08-28T23:58:37.981Z,17.31
